Terminal Aerodrome Forecast
Issued by NWS

Home | Current Version | Previous Version | Text Only | Print | Product List | Glossary On
Versions: 1 2 3 4 5 6 7 8 9 10 11 12
000
FTUS42 KMLB 222341
TAFLEE
TAF
KLEE 222341Z 2300/2324 VRB05KT P6SM BKN250
     FM230100 18005KT P6SM SCT080 BKN250
     FM231500 21010KT P6SM SCT050 BKN250=

USA.gov is the U.S. government's official web portal to all federal, state and local government web resources and services.